Time;durP1;ratioP1;P1;durP2;ratioP2;P2;SDS_P1;SDS_P2;PMS_P1;PMS_P2;Temp;Humidity;BMP_temperature;BMP_pressure;BME280_temperature;BME280_humidity;BME280_pressure;Samples;Min_cycle;Max_cycle;Signal;HPM_P1;HPM_P2
2021/08/16 00:00:22;;;;;;;90.80;26.40;;;;;;;;;;4983001;28;20568;-63
2021/08/16 00:02:47;;;;;;;73.30;24.00;;;;;;;;;;4980918;28;20062;-63
2021/08/16 00:05:14;;;;;;;68.47;23.98;;;;;;;;;;4985092;28;20038;-64
2021/08/16 00:07:41;;;;;;;69.22;22.50;;;;;;;;;;4984978;28;20030;-63
2021/08/16 00:10:07;;;;;;;68.80;22.38;;;;;;;;;;4982974;28;20030;-64
2021/08/16 00:12:33;;;;;;;67.20;22.17;;;;;;;;;;4988128;28;20050;-63
2021/08/16 00:14:59;;;;;;;61.92;22.42;;;;;;;;;;4983976;28;20026;-63
2021/08/16 00:17:25;;;;;;;67.55;23.25;;;;;;;;;;4985154;28;20072;-63
2021/08/16 00:19:50;;;;;;;73.97;24.20;;;;;;;;;;4983425;28;20235;-63
2021/08/16 00:22:17;;;;;;;72.88;23.63;;;;;;;;;;4980991;28;20047;-62
2021/08/16 00:24:43;;;;;;;70.60;24.08;;;;;;;;;;4981001;28;20105;-63
2021/08/16 00:27:08;;;;;;;84.85;24.88;;;;;;;;;;4982906;28;20169;-62
2021/08/16 00:29:34;;;;;;;95.75;30.15;;;;;;;;;;4987967;28;20042;-63
2021/08/16 00:31:59;;;;;;;98.75;30.63;;;;;;;;;;4984128;28;20033;-62
2021/08/16 00:34:25;;;;;;;111.75;35.17;;;;;;;;;;4985347;28;20090;-62
2021/08/16 00:36:51;;;;;;;106.60;34.13;;;;;;;;;;4982428;28;20042;-62
2021/08/16 00:39:17;;;;;;;84.13;30.40;;;;;;;;;;4981250;28;20414;-63
2021/08/16 00:41:46;;;;;;;87.18;27.90;;;;;;;;;;4988005;28;20038;-62
2021/08/16 00:44:12;;;;;;;75.65;26.75;;;;;;;;;;4979707;28;20477;-63
2021/08/16 00:46:38;;;;;;;81.72;27.67;;;;;;;;;;4986179;28;20026;-62
2021/08/16 00:49:04;;;;;;;76.70;24.75;;;;;;;;;;4984125;28;20443;-62
2021/08/16 00:51:31;;;;;;;67.65;23.35;;;;;;;;;;4985219;28;20033;-62
2021/08/16 00:53:58;;;;;;;68.78;21.65;;;;;;;;;;4983456;28;20906;-63
2021/08/16 00:56:26;;;;;;;67.47;20.88;;;;;;;;;;4983322;28;20057;-63
2021/08/16 00:58:57;;;;;;;68.32;21.38;;;;;;;;;;4980775;28;20527;-62
2021/08/16 01:01:23;;;;;;;76.70;20.92;;;;;;;;;;4988818;28;20095;-63
2021/08/16 01:03:48;;;;;;;62.30;19.90;;;;;;;;;;4999756;28;20124;-62
2021/08/16 01:06:14;;;;;;;63.70;19.02;;;;;;;;;;4993578;28;20091;-61
2021/08/16 01:08:40;;;;;;;66.68;20.17;;;;;;;;;;5005785;28;20033;-62
2021/08/16 01:11:05;;;;;;;63.95;19.42;;;;;;;;;;4999161;28;20488;-62
2021/08/16 01:13:31;;;;;;;58.90;19.55;;;;;;;;;;4992628;28;20030;-62
2021/08/16 01:16:00;;;;;;;64.00;21.90;;;;;;;;;;4999444;28;20026;-62
2021/08/16 01:18:27;;;;;;;63.88;18.42;;;;;;;;;;5002074;28;20033;-62
2021/08/16 01:20:53;;;;;;;58.65;17.85;;;;;;;;;;5002404;28;20049;-62
2021/08/16 01:23:19;;;;;;;55.88;17.10;;;;;;;;;;4992964;28;20105;-62
2021/08/16 01:25:47;;;;;;;64.85;17.10;;;;;;;;;;4997063;28;20041;-62
2021/08/16 01:28:17;;;;;;;63.40;18.17;;;;;;;;;;4997980;28;20544;-62
2021/08/16 01:30:55;;;;;;;52.08;15.82;;;;;;;;;;5005037;28;20045;-64
2021/08/16 01:33:22;;;;;;;50.58;15.35;;;;;;;;;;4999232;28;20030;-63
2021/08/16 01:35:47;;;;;;;51.45;15.75;;;;;;;;;;4992656;28;20045;-63
2021/08/16 01:38:13;;;;;;;64.88;14.65;;;;;;;;;;4997720;28;20507;-63
2021/08/16 01:40:38;;;;;;;53.95;14.43;;;;;;;;;;4997114;28;20042;-63
2021/08/16 01:43:04;;;;;;;45.40;14.52;;;;;;;;;;4995426;28;20033;-63
2021/08/16 01:45:30;;;;;;;44.20;13.40;;;;;;;;;;4997455;28;20042;-64
2021/08/16 01:47:57;;;;;;;52.00;14.55;;;;;;;;;;4998728;28;20084;-63
2021/08/16 01:50:23;;;;;;;43.15;12.57;;;;;;;;;;4997071;28;20034;-63
2021/08/16 01:52:49;;;;;;;37.60;12.20;;;;;;;;;;5000015;28;20507;-63
2021/08/16 01:55:16;;;;;;;38.28;11.13;;;;;;;;;;4999400;28;20037;-62
2021/08/16 01:57:41;;;;;;;40.35;11.75;;;;;;;;;;4994378;28;20117;-63
2021/08/16 02:00:08;;;;;;;41.55;12.38;;;;;;;;;;4998146;28;20113;-62
2021/08/16 02:02:33;;;;;;;43.97;12.15;;;;;;;;;;4995019;28;20042;-62
2021/08/16 02:04:59;;;;;;;39.20;12.32;;;;;;;;;;5001286;28;20503;-62
2021/08/16 02:07:24;;;;;;;52.53;11.60;;;;;;;;;;4993396;28;20034;-63
2021/08/16 02:09:50;;;;;;;48.30;12.25;;;;;;;;;;4995235;28;20036;-62
2021/08/16 02:12:15;;;;;;;41.33;10.82;;;;;;;;;;4996067;28;20027;-62
2021/08/16 02:14:41;;;;;;;33.25;10.07;;;;;;;;;;4995833;28;20037;-62
2021/08/16 02:17:06;;;;;;;43.50;13.60;;;;;;;;;;4998997;28;20034;-62
2021/08/16 02:19:32;;;;;;;35.53;10.63;;;;;;;;;;4994154;28;20121;-63
2021/08/16 02:21:58;;;;;;;45.13;12.93;;;;;;;;;;4994251;28;20501;-62
2021/08/16 02:24:23;;;;;;;37.55;11.00;;;;;;;;;;4995779;28;20555;-62
2021/08/16 02:26:49;;;;;;;46.25;12.55;;;;;;;;;;4999568;28;20033;-62
2021/08/16 02:29:14;;;;;;;36.72;11.35;;;;;;;;;;5000123;28;20463;-62
2021/08/16 02:31:40;;;;;;;32.95;10.52;;;;;;;;;;5000294;28;20057;-62
2021/08/16 02:34:06;;;;;;;44.00;11.20;;;;;;;;;;4996516;28;20050;-62
2021/08/16 02:36:31;;;;;;;32.47;10.50;;;;;;;;;;4995824;28;20538;-62
2021/08/16 02:38:57;;;;;;;41.28;12.63;;;;;;;;;;4999866;28;20588;-62
2021/08/16 02:41:22;;;;;;;35.35;10.20;;;;;;;;;;5001162;28;20495;-61
2021/08/16 02:43:49;;;;;;;43.17;10.57;;;;;;;;;;4996313;28;20033;-63
2021/08/16 02:46:15;;;;;;;40.42;10.93;;;;;;;;;;4995482;28;20145;-62
2021/08/16 02:48:41;;;;;;;42.55;10.85;;;;;;;;;;5000459;28;20109;-63
2021/08/16 02:51:06;;;;;;;34.00;10.30;;;;;;;;;;4999020;28;20026;-62
2021/08/16 02:53:32;;;;;;;32.17;10.27;;;;;;;;;;4998520;28;20276;-62
2021/08/16 02:55:57;;;;;;;42.20;11.55;;;;;;;;;;4998330;28;20030;-62
2021/08/16 02:58:23;;;;;;;38.80;10.35;;;;;;;;;;4996339;28;20034;-62
2021/08/16 03:00:49;;;;;;;32.97;9.98;;;;;;;;;;5001322;28;20440;-62
2021/08/16 03:03:15;;;;;;;31.77;10.23;;;;;;;;;;4997037;28;20033;-62
2021/08/16 03:05:40;;;;;;;39.80;10.90;;;;;;;;;;4999930;28;20109;-62
2021/08/16 03:08:06;;;;;;;33.85;10.10;;;;;;;;;;4996444;28;20141;-62
2021/08/16 03:10:33;;;;;;;29.05;9.90;;;;;;;;;;4995701;28;20038;-62
2021/08/16 03:12:59;;;;;;;34.38;10.27;;;;;;;;;;5002753;28;20038;-62
2021/08/16 03:15:25;;;;;;;35.20;10.55;;;;;;;;;;4996725;28;20038;-62
2021/08/16 03:17:51;;;;;;;50.67;12.88;;;;;;;;;;4994443;28;20034;-62
2021/08/16 03:20:16;;;;;;;31.23;9.73;;;;;;;;;;4999115;28;20025;-62
2021/08/16 03:22:42;;;;;;;36.53;9.85;;;;;;;;;;4996205;28;20077;-61
2021/08/16 03:25:08;;;;;;;38.25;10.15;;;;;;;;;;5000115;28;20030;-62
2021/08/16 03:27:33;;;;;;;35.00;10.07;;;;;;;;;;4986787;28;20444;-62
2021/08/16 03:30:01;;;;;;;25.75;9.40;;;;;;;;;;5001577;28;20746;-62
2021/08/16 03:32:27;;;;;;;28.80;9.10;;;;;;;;;;4996641;28;20036;-61
2021/08/16 03:34:52;;;;;;;28.17;8.15;;;;;;;;;;4999548;28;20043;-61
2021/08/16 03:37:18;;;;;;;35.33;10.02;;;;;;;;;;4998133;28;20034;-61
2021/08/16 03:39:43;;;;;;;33.45;8.75;;;;;;;;;;5001039;28;20073;-61
2021/08/16 03:42:09;;;;;;;35.55;8.57;;;;;;;;;;4993482;28;20497;-62
2021/08/16 03:44:35;;;;;;;33.15;8.82;;;;;;;;;;4994097;28;20423;-62
2021/08/16 03:47:00;;;;;;;44.13;9.00;;;;;;;;;;4996502;28;20034;-61
2021/08/16 03:49:26;;;;;;;29.20;8.90;;;;;;;;;;5001449;28;20034;-62
2021/08/16 03:51:51;;;;;;;32.08;9.32;;;;;;;;;;4996784;28;20040;-62
2021/08/16 03:54:17;;;;;;;25.65;8.02;;;;;;;;;;5006129;28;20068;-62
2021/08/16 03:56:42;;;;;;;44.78;10.38;;;;;;;;;;5001785;28;20505;-62
2021/08/16 03:59:08;;;;;;;31.17;8.13;;;;;;;;;;4998851;28;20136;-63
2021/08/16 04:01:33;;;;;;;34.42;8.13;;;;;;;;;;5002580;28;20054;-62
2021/08/16 04:04:01;;;;;;;37.47;9.30;;;;;;;;;;5005273;28;20093;-63
2021/08/16 04:06:27;;;;;;;36.30;9.13;;;;;;;;;;5000228;28;20447;-62
2021/08/16 04:08:53;;;;;;;30.67;8.70;;;;;;;;;;4998089;28;20042;-62
2021/08/16 04:11:18;;;;;;;32.13;9.82;;;;;;;;;;4998686;28;20427;-62
2021/08/16 04:13:44;;;;;;;43.72;9.30;;;;;;;;;;5001792;28;20108;-62
2021/08/16 04:16:09;;;;;;;32.13;9.10;;;;;;;;;;5001408;28;20481;-62
2021/08/16 04:18:36;;;;;;;29.80;9.52;;;;;;;;;;5002628;28;20437;-62
2021/08/16 04:21:01;;;;;;;34.40;7.90;;;;;;;;;;4999470;28;20045;-62
2021/08/16 04:23:27;;;;;;;30.85;8.57;;;;;;;;;;5001466;28;20133;-61
2021/08/16 04:25:52;;;;;;;26.80;7.65;;;;;;;;;;4999930;28;20054;-62
2021/08/16 04:28:18;;;;;;;28.52;7.70;;;;;;;;;;4999660;28;20034;-62
2021/08/16 04:30:45;;;;;;;27.67;8.52;;;;;;;;;;4997701;28;20030;-62
2021/08/16 04:33:11;;;;;;;31.25;8.65;;;;;;;;;;4997326;28;20025;-61
2021/08/16 04:35:36;;;;;;;38.08;8.95;;;;;;;;;;5000624;28;20026;-61
2021/08/16 04:38:03;;;;;;;41.65;8.65;;;;;;;;;;5001367;28;20026;-61
2021/08/16 04:40:28;;;;;;;41.97;10.82;;;;;;;;;;5003247;28;20037;-62
2021/08/16 04:42:54;;;;;;;30.45;8.43;;;;;;;;;;5001814;28;20492;-62
2021/08/16 04:45:19;;;;;;;33.47;8.55;;;;;;;;;;5000451;28;20037;-61
2021/08/16 04:47:45;;;;;;;25.60;7.28;;;;;;;;;;5003913;28;20044;-62
2021/08/16 04:50:12;;;;;;;25.17;7.97;;;;;;;;;;4996524;28;20058;-63
2021/08/16 04:52:37;;;;;;;37.05;8.02;;;;;;;;;;5001435;28;20038;-63
2021/08/16 04:55:03;;;;;;;35.45;8.55;;;;;;;;;;5002838;28;20034;-62
2021/08/16 04:57:31;;;;;;;31.67;8.48;;;;;;;;;;4996922;28;20077;-62
2021/08/16 04:59:57;;;;;;;32.30;8.48;;;;;;;;;;5002416;28;20045;-63
2021/08/16 05:02:22;;;;;;;33.38;8.02;;;;;;;;;;5000480;28;20505;-62
2021/08/16 05:04:53;;;;;;;29.42;8.52;;;;;;;;;;4994301;28;20120;-62
2021/08/16 05:07:19;;;;;;;36.05;8.38;;;;;;;;;;4996104;28;20042;-62
2021/08/16 05:09:44;;;;;;;32.78;8.82;;;;;;;;;;4998312;28;20419;-62
2021/08/16 05:12:10;;;;;;;25.20;7.85;;;;;;;;;;4994829;28;20041;-63
2021/08/16 05:14:35;;;;;;;29.15;7.55;;;;;;;;;;4993329;28;20772;-62
2021/08/16 05:17:01;;;;;;;39.42;9.32;;;;;;;;;;4995817;28;20430;-62
2021/08/16 05:19:26;;;;;;;28.95;8.25;;;;;;;;;;4997645;28;20030;-62
2021/08/16 05:21:52;;;;;;;36.65;8.50;;;;;;;;;;4997390;28;20666;-62
2021/08/16 05:24:17;;;;;;;38.47;8.95;;;;;;;;;;5001030;28;20038;-62
2021/08/16 05:26:43;;;;;;;24.30;8.43;;;;;;;;;;4999987;28;20040;-62
2021/08/16 05:29:09;;;;;;;37.53;9.02;;;;;;;;;;4997119;28;20117;-61
2021/08/16 05:31:34;;;;;;;35.60;8.27;;;;;;;;;;4994099;28;20038;-61
2021/08/16 05:33:59;;;;;;;33.08;8.57;;;;;;;;;;5001741;28;20560;-61
2021/08/16 05:36:25;;;;;;;31.98;9.23;;;;;;;;;;4998622;28;20034;-61
2021/08/16 05:38:50;;;;;;;32.97;9.48;;;;;;;;;;4994054;28;20037;-62
2021/08/16 05:41:16;;;;;;;34.40;8.38;;;;;;;;;;4995588;28;20029;-61
2021/08/16 05:43:41;;;;;;;33.95;8.88;;;;;;;;;;4995893;28;20042;-62
2021/08/16 05:46:07;;;;;;;34.28;10.20;;;;;;;;;;5001915;28;20113;-62
2021/08/16 05:48:32;;;;;;;27.70;7.70;;;;;;;;;;5001486;28;20025;-62
2021/08/16 05:50:58;;;;;;;30.52;8.00;;;;;;;;;;4996986;28;20049;-62
2021/08/16 05:53:23;;;;;;;52.22;9.82;;;;;;;;;;4995508;28;20023;-61
2021/08/16 05:55:49;;;;;;;39.25;8.77;;;;;;;;;;4988775;28;20038;-61
2021/08/16 05:58:14;;;;;;;42.47;7.80;;;;;;;;;;4999049;28;20081;-62
2021/08/16 06:00:40;;;;;;;36.42;8.30;;;;;;;;;;4998462;28;20033;-61
2021/08/16 06:03:05;;;;;;;28.15;9.13;;;;;;;;;;4989615;28;20030;-62
2021/08/16 06:05:31;;;;;;;28.15;7.93;;;;;;;;;;4995790;28;20046;-61
2021/08/16 06:07:56;;;;;;;32.13;8.23;;;;;;;;;;5003588;28;20100;-61
2021/08/16 06:10:22;;;;;;;38.53;8.07;;;;;;;;;;4994616;28;20034;-62
2021/08/16 06:12:47;;;;;;;36.53;8.43;;;;;;;;;;4990042;28;20034;-62
2021/08/16 06:15:13;;;;;;;34.25;7.57;;;;;;;;;;4990296;28;20050;-62
2021/08/16 06:17:40;;;;;;;25.73;7.50;;;;;;;;;;5000461;28;20497;-62
2021/08/16 06:20:07;;;;;;;28.80;7.72;;;;;;;;;;4996451;28;20044;-62
2021/08/16 06:22:36;;;;;;;26.77;7.22;;;;;;;;;;4997788;28;20108;-61
2021/08/16 06:25:02;;;;;;;33.58;6.35;;;;;;;;;;4994575;28;20033;-63
2021/08/16 06:27:28;;;;;;;21.10;5.60;;;;;;;;;;4999855;28;20037;-62
2021/08/16 06:29:53;;;;;;;25.67;5.95;;;;;;;;;;5004303;28;20056;-62
2021/08/16 06:32:19;;;;;;;24.58;6.88;;;;;;;;;;4995391;28;20034;-63
2021/08/16 06:34:45;;;;;;;24.60;5.28;;;;;;;;;;4999174;28;20034;-63
2021/08/16 06:37:10;;;;;;;27.63;6.25;;;;;;;;;;4997590;28;20835;-62
2021/08/16 06:39:36;;;;;;;19.40;5.40;;;;;;;;;;5000821;28;20206;-62
2021/08/16 06:42:02;;;;;;;29.40;6.35;;;;;;;;;;4995775;28;20030;-62
2021/08/16 06:44:28;;;;;;;20.42;5.55;;;;;;;;;;4996721;28;20483;-62
2021/08/16 06:46:54;;;;;;;23.92;5.50;;;;;;;;;;4996102;28;20058;-62
2021/08/16 06:49:20;;;;;;;17.27;5.18;;;;;;;;;;5001103;28;20038;-62
2021/08/16 06:51:46;;;;;;;26.58;5.43;;;;;;;;;;4991000;28;20150;-63
2021/08/16 06:54:11;;;;;;;20.77;5.47;;;;;;;;;;4996211;28;20541;-62
2021/08/16 06:56:37;;;;;;;18.75;6.70;;;;;;;;;;4993386;28;20519;-61
2021/08/16 06:59:03;;;;;;;22.05;6.05;;;;;;;;;;4992619;28;20084;-62
2021/08/16 07:01:29;;;;;;;29.45;5.53;;;;;;;;;;4995794;28;20026;-61
2021/08/16 07:03:56;;;;;;;24.55;4.90;;;;;;;;;;4994825;28;20078;-62
2021/08/16 07:06:22;;;;;;;25.65;6.57;;;;;;;;;;4998463;28;20489;-62
2021/08/16 07:08:48;;;;;;;26.17;7.20;;;;;;;;;;4994326;28;20117;-62
2021/08/16 07:11:14;;;;;;;26.25;7.20;;;;;;;;;;4992612;28;20053;-62
2021/08/16 07:13:40;;;;;;;29.85;7.07;;;;;;;;;;4997042;28;20030;-62
2021/08/16 07:16:06;;;;;;;26.58;5.35;;;;;;;;;;4987774;28;20030;-63
2021/08/16 07:18:35;;;;;;;31.20;6.32;;;;;;;;;;4994301;28;20046;-62
2021/08/16 07:21:05;;;;;;;24.20;7.00;;;;;;;;;;4994551;28;20041;-62
2021/08/16 07:23:32;;;;;;;21.08;5.95;;;;;;;;;;4997505;28;20046;-64
2021/08/16 07:25:59;;;;;;;26.70;5.10;;;;;;;;;;4999238;28;20027;-62
2021/08/16 07:28:29;;;;;;;29.73;6.05;;;;;;;;;;5004141;28;20033;-62
2021/08/16 07:30:56;;;;;;;21.65;5.00;;;;;;;;;;4995992;28;20543;-61
2021/08/16 07:33:22;;;;;;;18.20;5.25;;;;;;;;;;4996586;28;20054;-61
2021/08/16 07:35:47;;;;;;;23.83;5.25;;;;;;;;;;5000127;28;20061;-61
2021/08/16 07:38:13;;;;;;;30.23;5.97;;;;;;;;;;4997096;28;20042;-61
2021/08/16 07:40:39;;;;;;;28.48;6.63;;;;;;;;;;4999173;28;20037;-61
2021/08/16 07:43:04;;;;;;;21.00;6.32;;;;;;;;;;5003040;28;20030;-63
2021/08/16 07:45:30;;;;;;;30.73;6.00;;;;;;;;;;4994568;28;20033;-62
2021/08/16 07:47:56;;;;;;;20.42;6.75;;;;;;;;;;5000938;28;20452;-62
2021/08/16 07:50:22;;;;;;;21.63;6.03;;;;;;;;;;4999181;28;20038;-63
2021/08/16 07:52:47;;;;;;;32.92;7.63;;;;;;;;;;4997195;28;20033;-62
2021/08/16 07:55:13;;;;;;;21.27;5.32;;;;;;;;;;5000670;28;20038;-62
2021/08/16 07:57:38;;;;;;;19.20;5.78;;;;;;;;;;4999183;28;20060;-62
2021/08/16 08:00:06;;;;;;;23.13;7.38;;;;;;;;;;4999744;28;20058;-62
2021/08/16 08:02:42;;;;;;;19.20;5.57;;;;;;;;;;4996556;28;20050;-62
2021/08/16 08:05:09;;;;;;;21.20;5.85;;;;;;;;;;4999121;28;20113;-62
2021/08/16 08:07:35;;;;;;;24.00;6.75;;;;;;;;;;4997684;28;20053;-62
2021/08/16 08:10:01;;;;;;;22.30;6.00;;;;;;;;;;4999349;28;20523;-62
2021/08/16 08:12:27;;;;;;;29.52;7.25;;;;;;;;;;5002284;28;20029;-62
2021/08/16 08:14:52;;;;;;;26.75;5.93;;;;;;;;;;4995604;28;20045;-63
2021/08/16 08:17:20;;;;;;;29.02;6.50;;;;;;;;;;4993286;28;20034;-62
2021/08/16 08:19:45;;;;;;;25.60;5.85;;;;;;;;;;5002091;28;20038;-62
2021/08/16 08:22:11;;;;;;;32.47;5.43;;;;;;;;;;4998541;28;20137;-62
2021/08/16 08:24:37;;;;;;;21.02;5.53;;;;;;;;;;4997015;28;20043;-63
2021/08/16 08:27:03;;;;;;;14.80;5.03;;;;;;;;;;5002135;28;20045;-62
2021/08/16 08:29:28;;;;;;;27.08;4.40;;;;;;;;;;5001426;28;20507;-62
2021/08/16 08:31:54;;;;;;;25.60;4.72;;;;;;;;;;5000034;28;20307;-62
2021/08/16 08:34:19;;;;;;;28.98;4.05;;;;;;;;;;5001908;28;20122;-62
2021/08/16 08:36:45;;;;;;;25.35;6.10;;;;;;;;;;4997645;28;20424;-62
2021/08/16 08:39:11;;;;;;;21.40;4.45;;;;;;;;;;4993209;28;20034;-62
2021/08/16 08:41:37;;;;;;;19.13;4.70;;;;;;;;;;4998170;28;20045;-63
2021/08/16 08:44:10;;;;;;;13.43;4.35;;;;;;;;;;4997024;28;20058;-62
2021/08/16 08:46:40;;;;;;;15.93;4.28;;;;;;;;;;5000825;28;20049;-63
2021/08/16 08:49:10;;;;;;;19.17;4.28;;;;;;;;;;4998874;28;20493;-61
2021/08/16 08:51:36;;;;;;;11.65;4.07;;;;;;;;;;4999325;28;20042;-62
2021/08/16 08:54:06;;;;;;;20.80;4.18;;;;;;;;;;4999095;28;20507;-62
2021/08/16 08:56:32;;;;;;;18.27;3.97;;;;;;;;;;5002005;28;20034;-62
2021/08/16 08:58:58;;;;;;;15.73;3.83;;;;;;;;;;5002203;28;20060;-62
2021/08/16 09:01:25;;;;;;;11.93;3.63;;;;;;;;;;4999580;28;20037;-62
2021/08/16 09:03:52;;;;;;;16.70;4.18;;;;;;;;;;4997737;28;20030;-62
2021/08/16 09:06:31;;;;;;;23.20;4.53;;;;;;;;;;4998298;28;20055;-61
2021/08/16 09:08:57;;;;;;;19.55;4.03;;;;;;;;;;4992671;28;20030;-62
2021/08/16 09:11:27;;;;;;;18.75;4.32;;;;;;;;;;4998681;28;20500;-62
2021/08/16 09:13:53;;;;;;;15.50;3.45;;;;;;;;;;4994174;28;20045;-61
2021/08/16 09:16:19;;;;;;;17.80;3.17;;;;;;;;;;5003039;28;20029;-62
2021/08/16 09:18:44;;;;;;;13.68;3.38;;;;;;;;;;4995612;28;20092;-62
2021/08/16 09:21:12;;;;;;;20.25;4.05;;;;;;;;;;4996273;28;20037;-62
2021/08/16 09:23:45;;;;;;;14.57;3.03;;;;;;;;;;5000225;28;20052;-62
2021/08/16 09:26:11;;;;;;;16.98;3.38;;;;;;;;;;5001108;28;20425;-61
2021/08/16 09:28:37;;;;;;;18.08;3.58;;;;;;;;;;4996266;28;20040;-62
2021/08/16 09:31:14;;;;;;;15.95;3.63;;;;;;;;;;4997119;28;20026;-62
2021/08/16 09:34:02;;;;;;;14.82;3.45;;;;;;;;;;4997801;28;20022;-62
2021/08/16 09:36:38;;;;;;;19.45;3.42;;;;;;;;;;4998392;28;20382;-61
2021/08/16 09:39:16;;;;;;;16.05;3.28;;;;;;;;;;5000585;28;20500;-62
2021/08/16 09:41:42;;;;;;;18.15;3.53;;;;;;;;;;4996389;28;20485;-61
2021/08/16 09:44:09;;;;;;;15.77;3.10;;;;;;;;;;4991551;28;20089;-62
2021/08/16 09:46:36;;;;;;;13.70;3.22;;;;;;;;;;4993010;28;20046;-61
2021/08/16 09:49:03;;;;;;;6.28;2.40;;;;;;;;;;4999266;28;20453;-62
2021/08/16 09:51:30;;;;;;;17.90;3.35;;;;;;;;;;4999857;28;20051;-62
2021/08/16 09:53:57;;;;;;;16.40;2.58;;;;;;;;;;4995586;28;20042;-61
2021/08/16 09:56:23;;;;;;;15.65;2.92;;;;;;;;;;4993123;28;20022;-61
2021/08/16 09:58:49;;;;;;;14.25;2.78;;;;;;;;;;4998733;28;20053;-60
2021/08/16 10:01:15;;;;;;;19.25;2.50;;;;;;;;;;4996101;28;20026;-61
2021/08/16 10:03:41;;;;;;;7.78;2.20;;;;;;;;;;4994113;28;20504;-60
2021/08/16 10:06:08;;;;;;;8.68;1.98;;;;;;;;;;5001868;28;20033;-60
2021/08/16 10:08:44;;;;;;;19.50;3.00;;;;;;;;;;5003185;28;20090;-61
2021/08/16 10:11:15;;;;;;;14.93;2.47;;;;;;;;;;4993209;28;20389;-62
2021/08/16 10:13:42;;;;;;;9.52;2.67;;;;;;;;;;4992023;28;20029;-61
2021/08/16 10:16:13;;;;;;;13.75;2.58;;;;;;;;;;4994402;28;20393;-61
2021/08/16 10:18:48;;;;;;;9.15;2.65;;;;;;;;;;5000561;28;20419;-61
2021/08/16 10:21:21;;;;;;;10.70;2.47;;;;;;;;;;4996500;28;20041;-62
2021/08/16 10:23:49;;;;;;;6.20;2.42;;;;;;;;;;4989360;28;20116;-61
2021/08/16 10:26:27;;;;;;;14.43;2.67;;;;;;;;;;4993027;28;20037;-61
2021/08/16 10:28:59;;;;;;;17.48;2.55;;;;;;;;;;4994399;28;20552;-61
2021/08/16 10:31:29;;;;;;;13.75;1.83;;;;;;;;;;4989195;28;20480;-60
2021/08/16 10:33:55;;;;;;;14.27;2.08;;;;;;;;;;4992860;28;20426;-61
2021/08/16 10:36:22;;;;;;;10.43;3.33;;;;;;;;;;5001714;28;20121;-61
2021/08/16 10:38:49;;;;;;;12.35;2.00;;;;;;;;;;4996093;28;20496;-60
2021/08/16 10:41:29;;;;;;;7.13;2.28;;;;;;;;;;4992283;28;20034;-61
2021/08/16 10:43:55;;;;;;;11.15;3.50;;;;;;;;;;5003585;28;20113;-61
2021/08/16 10:46:23;;;;;;;20.55;3.40;;;;;;;;;;5000810;28;20032;-61
2021/08/16 10:49:12;;;;;;;12.98;2.90;;;;;;;;;;4996809;28;20043;-62
2021/08/16 10:51:46;;;;;;;9.75;2.10;;;;;;;;;;4991002;28;20029;-61
2021/08/16 10:54:27;;;;;;;16.73;2.20;;;;;;;;;;4997824;28;20045;-61
2021/08/16 10:56:54;;;;;;;13.75;3.17;;;;;;;;;;4997493;28;20061;-61
2021/08/16 10:59:28;;;;;;;14.15;2.15;;;;;;;;;;5001868;28;20038;-62
2021/08/16 11:01:55;;;;;;;17.20;3.25;;;;;;;;;;5006233;28;20029;-61
2021/08/16 11:04:31;;;;;;;18.50;3.08;;;;;;;;;;5002053;28;20026;-62
2021/08/16 11:07:01;;;;;;;11.38;2.80;;;;;;;;;;4997754;28;20034;-62
2021/08/16 11:09:32;;;;;;;9.70;2.78;;;;;;;;;;4998474;28;20025;-60
2021/08/16 11:12:06;;;;;;;10.10;3.17;;;;;;;;;;4998534;28;20398;-60
2021/08/16 11:14:38;;;;;;;19.25;2.92;;;;;;;;;;5003496;28;20761;-61
2021/08/16 11:17:04;;;;;;;12.38;3.22;;;;;;;;;;5002411;28;20078;-62
2021/08/16 11:19:47;;;;;;;10.95;2.47;;;;;;;;;;5001729;28;20045;-62
2021/08/16 11:22:14;;;;;;;14.45;2.10;;;;;;;;;;5001345;28;20526;-62
2021/08/16 11:24:43;;;;;;;19.38;2.90;;;;;;;;;;5000560;28;20047;-62
2021/08/16 11:27:11;;;;;;;13.27;2.78;;;;;;;;;;5005019;28;20109;-62
2021/08/16 11:29:37;;;;;;;18.60;3.13;;;;;;;;;;5003815;28;20080;-62
2021/08/16 11:32:05;;;;;;;11.60;3.47;;;;;;;;;;5007865;28;20433;-62
2021/08/16 11:34:31;;;;;;;9.45;2.53;;;;;;;;;;5001167;28;20479;-62
2021/08/16 11:36:58;;;;;;;9.90;2.20;;;;;;;;;;4998480;28;20172;-62
2021/08/16 11:39:31;;;;;;;10.35;1.92;;;;;;;;;;5003314;28;20029;-63
2021/08/16 11:42:01;;;;;;;11.13;2.55;;;;;;;;;;5002830;28;20088;-62
2021/08/16 11:44:28;;;;;;;11.77;1.88;;;;;;;;;;5004175;28;20022;-62
2021/08/16 11:46:58;;;;;;;16.95;2.40;;;;;;;;;;4996994;28;20042;-62
2021/08/16 11:49:25;;;;;;;14.25;2.45;;;;;;;;;;4997602;28;20651;-62
2021/08/16 11:51:50;;;;;;;10.23;1.92;;;;;;;;;;4995092;28;20042;-62
2021/08/16 11:54:27;;;;;;;14.30;2.70;;;;;;;;;;4998208;28;20393;-63
2021/08/16 11:56:55;;;;;;;9.07;1.85;;;;;;;;;;5003488;28;20558;-62
2021/08/16 11:59:21;;;;;;;11.38;2.30;;;;;;;;;;4996191;28;20310;-62
2021/08/16 12:01:47;;;;;;;14.95;2.13;;;;;;;;;;4996886;28;20045;-62
2021/08/16 12:04:13;;;;;;;12.25;2.72;;;;;;;;;;4996387;28;20564;-62
2021/08/16 12:06:40;;;;;;;8.20;2.63;;;;;;;;;;4994190;28;20080;-62
2021/08/16 12:09:09;;;;;;;12.25;2.22;;;;;;;;;;4995265;28;20421;-62
2021/08/16 12:11:35;;;;;;;19.00;2.38;;;;;;;;;;4998042;28;20030;-62
2021/08/16 12:14:02;;;;;;;9.57;2.30;;;;;;;;;;4996258;28;20037;-62
2021/08/16 12:16:38;;;;;;;12.25;2.75;;;;;;;;;;4999227;28;20068;-62
2021/08/16 12:19:05;;;;;;;9.20;2.63;;;;;;;;;;5001674;28;20026;-62
2021/08/16 12:21:31;;;;;;;11.02;2.30;;;;;;;;;;5000444;28;20100;-62
2021/08/16 12:23:59;;;;;;;11.18;2.40;;;;;;;;;;5003042;28;20413;-62
2021/08/16 12:26:37;;;;;;;10.73;2.65;;;;;;;;;;5000276;28;20481;-63
2021/08/16 12:29:14;;;;;;;12.30;2.47;;;;;;;;;;4999390;28;20034;-62
2021/08/16 12:31:40;;;;;;;11.48;2.65;;;;;;;;;;4996643;28;20053;-62
2021/08/16 12:34:08;;;;;;;12.25;2.60;;;;;;;;;;4998348;28;20528;-62
2021/08/16 12:36:38;;;;;;;12.32;2.72;;;;;;;;;;5003507;28;20032;-62
2021/08/16 12:39:09;;;;;;;19.45;2.97;;;;;;;;;;4996487;28;20034;-62
2021/08/16 12:41:34;;;;;;;13.10;2.65;;;;;;;;;;5005511;28;20026;-62
2021/08/16 12:44:01;;;;;;;15.77;2.13;;;;;;;;;;5003092;28;20024;-62
2021/08/16 12:46:36;;;;;;;14.25;2.45;;;;;;;;;;5000558;28;20412;-62
2021/08/16 12:49:04;;;;;;;13.32;2.67;;;;;;;;;;4996960;28;20021;-62
2021/08/16 12:51:32;;;;;;;9.43;2.67;;;;;;;;;;4996474;28;20054;-62
2021/08/16 12:54:00;;;;;;;8.95;1.75;;;;;;;;;;5003809;28;20117;-62
2021/08/16 12:56:26;;;;;;;8.68;1.98;;;;;;;;;;5002377;28;20522;-62
2021/08/16 12:58:52;;;;;;;12.43;2.45;;;;;;;;;;5002371;28;20117;-62
2021/08/16 13:01:22;;;;;;;6.43;2.10;;;;;;;;;;4996708;28;20417;-62
2021/08/16 13:03:48;;;;;;;23.25;4.10;;;;;;;;;;4997597;28;20038;-63
2021/08/16 13:06:14;;;;;;;7.13;1.73;;;;;;;;;;4993695;28;20073;-62
2021/08/16 13:08:41;;;;;;;8.13;1.92;;;;;;;;;;5005961;28;20029;-62
2021/08/16 13:11:07;;;;;;;12.77;1.85;;;;;;;;;;4998331;28;20081;-62
2021/08/16 13:13:33;;;;;;;9.93;2.10;;;;;;;;;;4997393;28;20026;-62
2021/08/16 13:15:58;;;;;;;10.55;2.17;;;;;;;;;;4996082;28;20053;-62
2021/08/16 13:18:24;;;;;;;9.05;1.70;;;;;;;;;;4997885;28;20034;-63
2021/08/16 13:20:49;;;;;;;9.95;2.10;;;;;;;;;;4998761;28;20644;-62
2021/08/16 13:23:15;;;;;;;12.10;2.25;;;;;;;;;;4997890;28;20052;-62
2021/08/16 13:25:41;;;;;;;10.82;2.80;;;;;;;;;;4999156;28;20157;-62
2021/08/16 13:28:07;;;;;;;15.00;4.35;;;;;;;;;;4992466;28;20506;-62
2021/08/16 13:30:32;;;;;;;8.25;2.42;;;;;;;;;;4997562;28;20042;-62
2021/08/16 13:32:58;;;;;;;14.43;2.92;;;;;;;;;;4996734;28;20026;-62
2021/08/16 13:35:23;;;;;;;12.73;2.85;;;;;;;;;;4999847;28;20038;-62
2021/08/16 13:37:50;;;;;;;12.73;2.60;;;;;;;;;;4995826;28;20489;-62
2021/08/16 13:40:15;;;;;;;13.52;2.50;;;;;;;;;;4997896;28;20084;-62
2021/08/16 13:42:41;;;;;;;14.80;2.45;;;;;;;;;;4995369;28;20030;-62
2021/08/16 13:45:08;;;;;;;21.40;3.05;;;;;;;;;;4998132;28;20056;-62
2021/08/16 13:47:33;;;;;;;14.57;2.28;;;;;;;;;;4996441;28;20052;-62
2021/08/16 13:49:59;;;;;;;12.07;2.33;;;;;;;;;;4994582;28;20034;-62
2021/08/16 13:52:24;;;;;;;16.02;2.33;;;;;;;;;;4996932;28;20487;-62
2021/08/16 13:54:50;;;;;;;9.95;1.75;;;;;;;;;;5002115;28;20041;-62
2021/08/16 13:57:15;;;;;;;6.25;1.80;;;;;;;;;;4997062;28;20034;-62
2021/08/16 13:59:41;;;;;;;8.88;1.60;;;;;;;;;;5004649;28;20080;-62
2021/08/16 14:02:06;;;;;;;7.43;1.50;;;;;;;;;;5000907;28;20025;-62
2021/08/16 14:04:32;;;;;;;11.95;2.25;;;;;;;;;;5002078;28;20049;-62
2021/08/16 14:06:57;;;;;;;18.65;3.15;;;;;;;;;;5000926;28;20112;-62
2021/08/16 14:09:23;;;;;;;14.40;3.00;;;;;;;;;;4996052;28;20286;-62
2021/08/16 14:11:48;;;;;;;10.93;2.35;;;;;;;;;;5003904;28;20034;-62
2021/08/16 14:14:15;;;;;;;9.02;2.40;;;;;;;;;;4999564;28;20037;-62
2021/08/16 14:16:41;;;;;;;17.27;3.17;;;;;;;;;;4998902;28;20030;-62
2021/08/16 14:19:07;;;;;;;14.80;2.47;;;;;;;;;;4999194;28;20038;-62
2021/08/16 14:21:33;;;;;;;13.27;3.30;;;;;;;;;;5002835;28;20080;-62
2021/08/16 14:23:58;;;;;;;16.98;4.57;;;;;;;;;;4997005;28;20134;-62
2021/08/16 14:26:24;;;;;;;13.95;3.67;;;;;;;;;;4999097;28;20069;-62